createdAt,value
2022-12-11T00:00:24.071Z,20.1
2022-12-11T00:05:19.695Z,20.1
2022-12-11T00:10:22.357Z,20.1
2022-12-11T00:15:27.388Z,20.1
2022-12-11T00:20:16.105Z,20
2022-12-11T00:25:22.547Z,20
2022-12-11T00:30:18.293Z,20
2022-12-11T00:35:25.304Z,20
2022-12-11T00:40:14.193Z,20
2022-12-11T00:45:26.696Z,20
2022-12-11T00:50:20.738Z,20
2022-12-11T00:55:17.773Z,20
2022-12-11T01:00:17.629Z,19.9
2022-12-11T01:05:16.411Z,19.9
2022-12-11T01:10:18.186Z,19.9
2022-12-11T01:15:25.199Z,19.9
2022-12-11T01:20:16.039Z,19.8
2022-12-11T01:25:24.288Z,19.9
2022-12-11T01:30:16.119Z,19.8
2022-12-11T01:35:20.673Z,19.8
2022-12-11T01:40:14.499Z,19.8
2022-12-11T01:45:21.179Z,19.8
2022-12-11T01:50:19.748Z,19.8
2022-12-11T01:55:29.493Z,19.8
2022-12-11T02:00:20.253Z,19.7
2022-12-11T02:05:17.895Z,19.7
2022-12-11T02:10:17.521Z,19.7
2022-12-11T02:15:27.105Z,19.7
2022-12-11T02:20:21.779Z,19.7
2022-12-11T02:25:29.857Z,19.7
2022-12-11T02:30:19.627Z,19.6
2022-12-11T02:35:29.413Z,19.7
2022-12-11T02:40:18.167Z,19.6
2022-12-11T02:45:22.447Z,19.6
2022-12-11T02:50:14.284Z,19.6
2022-12-11T02:55:20.601Z,19.6
2022-12-11T03:00:14.585Z,19.6
2022-12-11T03:05:14.103Z,19.6
2022-12-11T03:10:13.978Z,19.6
2022-12-11T03:15:24.095Z,19.6
2022-12-11T03:20:13.937Z,19.6
2022-12-11T03:25:19.016Z,19.6
2022-12-11T03:30:15.771Z,19.6
2022-12-11T03:35:24.460Z,19.5
2022-12-11T03:40:16.166Z,19.5
2022-12-11T03:45:20.083Z,19.5
2022-12-11T03:50:13.834Z,19.5
2022-12-11T03:55:22.342Z,19.5
2022-12-11T04:00:16.044Z,19.5
2022-12-11T04:05:14.143Z,19.5
2022-12-11T04:10:18.172Z,19.5
2022-12-11T04:15:21.522Z,19.4
2022-12-11T04:20:18.203Z,19.4
2022-12-11T04:25:22.070Z,19.4
2022-12-11T04:30:13.872Z,19.4
2022-12-11T04:35:21.744Z,19.4
2022-12-11T04:40:16.345Z,19.4
2022-12-11T04:45:20.812Z,19.4
2022-12-11T04:50:19.483Z,19.3
2022-12-11T04:55:23.190Z,19.3
2022-12-11T05:00:15.892Z,19.3
2022-12-11T05:05:15.477Z,19.3
2022-12-11T05:10:22.034Z,19.3
2022-12-11T05:15:32.113Z,19.3
2022-12-11T05:20:17.422Z,19.3
2022-12-11T05:25:22.078Z,19.4
2022-12-11T05:30:15.829Z,19.4
2022-12-11T05:35:17.422Z,19.4
2022-12-11T05:40:18.125Z,19.4
2022-12-11T05:45:26.932Z,19.4
2022-12-11T05:50:17.602Z,19.4
2022-12-11T05:55:22.672Z,19.5
2022-12-11T06:00:18.058Z,19.5
2022-12-11T06:05:16.134Z,19.5
2022-12-11T06:10:15.591Z,19.5
2022-12-11T06:15:22.924Z,19.5
2022-12-11T06:20:21.590Z,19.5
2022-12-11T06:25:24.315Z,19.6
2022-12-11T06:30:20.137Z,19.6
2022-12-11T06:35:19.792Z,19.6
2022-12-11T06:40:15.494Z,19.5
2022-12-11T06:45:22.192Z,19.5
2022-12-11T06:50:13.994Z,19.5
2022-12-11T06:55:21.830Z,19.5
2022-12-11T07:00:17.652Z,19.5
2022-12-11T07:05:18.042Z,19.4
2022-12-11T07:10:22.054Z,19.4
2022-12-11T07:15:15.975Z,19.4
2022-12-11T07:20:19.685Z,19.3
2022-12-11T07:25:14.692Z,19.3
2022-12-11T07:30:14.956Z,19.3
2022-12-11T07:35:21.660Z,19.3
2022-12-11T07:40:14.516Z,19.3
2022-12-11T07:45:16.236Z,19.3
2022-12-11T07:50:16.015Z,19.2
2022-12-11T07:55:17.791Z,19.2
2022-12-11T08:00:15.587Z,19.2
2022-12-11T08:05:16.378Z,19.2
2022-12-11T08:10:16.034Z,19.2
2022-12-11T08:15:15.055Z,19.2
2022-12-11T08:20:15.730Z,19.2
2022-12-11T08:25:20.340Z,19.2
2022-12-11T08:30:16.183Z,19.1
2022-12-11T08:35:13.899Z,19.1
2022-12-11T08:40:27.732Z,19.1
2022-12-11T08:45:22.830Z,19.1
2022-12-11T08:50:15.662Z,19.1
2022-12-11T08:55:16.297Z,19.1
2022-12-11T09:00:18.033Z,19.1
2022-12-11T09:05:20.113Z,19.1
2022-12-11T09:10:13.928Z,19.2
2022-12-11T09:15:19.207Z,19.2
2022-12-11T09:20:14.288Z,19.2
2022-12-11T09:25:19.687Z,19.2
2022-12-11T09:30:20.433Z,19.2
2022-12-11T09:35:20.699Z,19.2
2022-12-11T09:40:19.362Z,19.2
2022-12-11T09:45:23.007Z,19.2
2022-12-11T09:50:15.648Z,19.2
2022-12-11T09:55:26.573Z,19.2
2022-12-11T10:00:17.211Z,19.2
2022-12-11T10:05:15.698Z,19.2
2022-12-11T10:10:18.375Z,19.2
2022-12-11T10:15:22.227Z,19.2
2022-12-11T10:20:24.159Z,19.2
2022-12-11T10:25:30.527Z,19.2
2022-12-11T10:30:16.283Z,19.2
2022-12-11T10:35:19.905Z,19.2
2022-12-11T10:40:19.551Z,19.2
2022-12-11T10:45:21.792Z,19.2
2022-12-11T10:55:18.761Z,19.2
2022-12-11T11:00:14.916Z,19.2
2022-12-11T11:05:20.037Z,19.2
2022-12-11T11:10:19.852Z,19.3
2022-12-11T11:15:29.880Z,19.3
2022-12-11T11:20:16.485Z,19.3
2022-12-11T11:25:22.864Z,19.3
2022-12-11T11:30:15.665Z,19.3
2022-12-11T11:35:22.414Z,19.4
2022-12-11T11:40:16.109Z,19.4
2022-12-11T11:45:27.231Z,19.4
2022-12-11T11:50:15.995Z,19.4
2022-12-11T11:55:21.882Z,19.4
2022-12-11T12:00:18.401Z,19.3
2022-12-11T12:05:15.798Z,19.3
2022-12-11T12:10:16.051Z,19.4
2022-12-11T12:15:17.818Z,19.4
2022-12-11T12:20:15.790Z,19.4
2022-12-11T12:25:17.478Z,19.4
2022-12-11T12:30:23.558Z,19.4
2022-12-11T12:35:18.027Z,19.4
2022-12-11T12:40:13.768Z,19.4
2022-12-11T12:45:17.891Z,19.4
2022-12-11T12:50:18.252Z,19.4
2022-12-11T12:55:15.930Z,19.4
2022-12-11T13:00:26.864Z,19.4
2022-12-11T13:05:21.629Z,19.4
2022-12-11T13:10:20.293Z,19.4
2022-12-11T13:15:16.051Z,19.4
2022-12-11T13:20:23.693Z,19.4
2022-12-11T13:25:16.367Z,19.3
2022-12-11T13:30:20.056Z,19.3
2022-12-11T13:35:23.700Z,19.3
2022-12-11T13:40:14.490Z,19.3
2022-12-11T13:45:22.192Z,19.3
2022-12-11T13:50:26.010Z,19.3
2022-12-11T13:55:17.694Z,19.3
2022-12-11T14:00:17.380Z,19.4
2022-12-11T14:05:15.802Z,19.4
2022-12-11T14:10:17.724Z,19.4
2022-12-11T14:15:14.674Z,19.4
2022-12-11T14:20:16.334Z,19.3
2022-12-11T14:25:15.999Z,19.3
2022-12-11T14:30:15.797Z,19.3
2022-12-11T14:35:17.445Z,19.3
2022-12-11T14:40:18.154Z,19.3
2022-12-11T14:45:15.057Z,19.3
2022-12-11T14:50:15.882Z,19.2
2022-12-11T14:55:17.698Z,19.2
2022-12-11T15:00:16.502Z,19.2
2022-12-11T15:05:14.151Z,19.2
2022-12-11T15:10:14.410Z,19.2
2022-12-11T15:15:16.268Z,19.2
2022-12-11T15:20:14.904Z,19.1
2022-12-11T15:25:15.934Z,19.1
2022-12-11T15:30:26.040Z,19.1
2022-12-11T15:35:13.911Z,19.1
2022-12-11T15:40:20.775Z,19.1
2022-12-11T15:45:20.788Z,19.1
2022-12-11T15:50:16.379Z,19.2
2022-12-11T15:55:16.076Z,19.2
2022-12-11T16:00:21.773Z,19.1
2022-12-11T16:05:17.565Z,19.1
2022-12-11T16:10:24.252Z,19
2022-12-11T16:15:17.588Z,19
2022-12-11T16:20:17.712Z,19
2022-12-11T16:25:20.338Z,19
2022-12-11T16:30:18.324Z,18.9
2022-12-11T16:35:21.982Z,18.9
2022-12-11T16:40:17.611Z,18.9
2022-12-11T16:45:16.296Z,18.9
2022-12-11T16:50:21.951Z,18.9
2022-12-11T16:55:18.550Z,18.9
2022-12-11T17:00:22.347Z,18.9
2022-12-11T17:05:18.430Z,18.9
2022-12-11T17:10:20.256Z,18.9
2022-12-11T17:15:15.060Z,19
2022-12-11T17:20:17.816Z,19
2022-12-11T17:25:27.551Z,18.9
2022-12-11T17:30:16.245Z,18.9
2022-12-11T17:35:15.992Z,19.1
2022-12-11T17:40:19.807Z,19.3
2022-12-11T17:45:15.787Z,19.3
2022-12-11T17:50:19.465Z,19.4
2022-12-11T17:55:16.508Z,19.5
2022-12-11T18:00:15.997Z,19.5
2022-12-11T18:05:16.221Z,19.5
2022-12-11T18:10:19.869Z,19.6
2022-12-11T18:15:17.632Z,19.6
2022-12-11T18:20:23.449Z,19.6
2022-12-11T18:25:23.662Z,19.7
2022-12-11T18:30:20.715Z,19.8
2022-12-11T18:35:14.732Z,19.8
2022-12-11T18:40:18.805Z,19.8
2022-12-11T18:45:14.669Z,19.8
2022-12-11T18:50:19.734Z,19.8
2022-12-11T18:55:14.877Z,19.8
2022-12-11T19:00:23.110Z,19.8
2022-12-11T19:05:14.883Z,19.9
2022-12-11T19:10:18.080Z,19.9
2022-12-11T19:15:15.186Z,19.9
2022-12-11T19:21:20.241Z,19.9
2022-12-11T19:25:17.907Z,19.8
2022-12-11T19:30:20.801Z,19.7
2022-12-11T19:35:17.545Z,19.7
2022-12-11T19:40:21.262Z,19.7
2022-12-11T19:45:18.250Z,19.8
2022-12-11T19:50:18.923Z,19.8
2022-12-11T19:55:13.791Z,19.8
2022-12-11T20:00:23.348Z,19.8
2022-12-11T20:05:18.131Z,19.8
2022-12-11T20:10:26.856Z,19.7
2022-12-11T20:15:23.679Z,19.6
2022-12-11T20:20:23.453Z,19.6
2022-12-11T20:25:20.134Z,19.6
2022-12-11T20:30:21.039Z,19.6
2022-12-11T20:35:17.721Z,19.6
2022-12-11T20:40:23.477Z,19.6
2022-12-11T20:45:20.255Z,19.6
2022-12-11T20:50:19.914Z,19.6
2022-12-11T20:55:21.579Z,19.6
2022-12-11T21:00:16.339Z,19.5
2022-12-11T21:05:15.994Z,19.5
2022-12-11T21:10:13.854Z,19.5
2022-12-11T21:15:21.954Z,19.5
2022-12-11T21:20:14.200Z,19.5
2022-12-11T21:25:14.535Z,19.4
2022-12-11T21:30:15.888Z,19.4
2022-12-11T21:35:15.678Z,19.4
2022-12-11T21:40:22.414Z,19.3
2022-12-11T21:46:14.603Z,19.3
2022-12-11T21:50:17.598Z,19.3
2022-12-11T21:55:18.256Z,19.2
2022-12-11T22:00:16.039Z,19.2
2022-12-11T22:05:15.923Z,19.2
2022-12-11T22:10:19.829Z,19.2
2022-12-11T22:15:15.721Z,19.2
2022-12-11T22:20:24.473Z,19.1
2022-12-11T22:25:16.215Z,19.1
2022-12-11T22:30:23.023Z,19.1
2022-12-11T22:35:15.918Z,19
2022-12-11T22:40:20.818Z,19
2022-12-11T22:45:15.879Z,19
2022-12-11T22:50:18.537Z,18.9
2022-12-11T22:55:14.698Z,18.9
2022-12-11T23:00:18.629Z,18.9
2022-12-11T23:05:14.704Z,18.9
2022-12-11T23:10:19.691Z,18.8
2022-12-11T23:15:18.771Z,18.8
2022-12-11T23:20:20.558Z,18.8
2022-12-11T23:25:20.237Z,18.8
2022-12-11T23:30:19.103Z,18.7
2022-12-11T23:35:17.705Z,18.7
2022-12-11T23:40:21.463Z,18.7
2022-12-11T23:45:14.691Z,18.6
2022-12-11T23:50:25.225Z,18.6
2022-12-11T23:55:19.839Z,18.6
